Am Larafale — 9HA2490 — position and weather

sailwx.info

Track history (hours):
 
Tides and Currents Weather Stations Pressure Air Temp Water Temp Dewpoint Dewpoint Depression Visibility Wind Speed Wind Dir Waves Ship Positions

Am Larafale

Last reported at 2018-Jul-24 17:00 UTC. Time now 2018-Aug-19 15:19 UTC.
Position N 46°33' E 032°16'.
Warning: this ship's position is 25 days out of date.

Length 106 m; draft 3.7 m.

Type: Cargo ship. MMSI: 248738000.

Date/timePositionNaut miles runAvg speedWind from/ knotsBaromVisibWave heightAir tempDewpointWater temp
2018-Jul-24 17:00N 46°33' E 032°16'6 8.5
2018-Jul-24 16:15N 46°32' E 032°07'2 9.4
2018-Jul-24 16:00N 46°32' E 032°04'5 9.2
2018-Jul-24 15:28N 46°34' E 031°57'25 8.8
2018-Jul-24 12:39N 46°35' E 031°21'1 8.7
2018-Jul-24 12:30N 46°35' E 031°20'4 8.6
2018-Jul-24 12:00N 46°35' E 031°13'4 8.9
2018-Jul-24 11:30N 46°35' E 031°07'4 8.6
2018-Jul-24 11:00N 46°34' E 031°01'3 6.9
2018-Jul-24 10:30N 46°31' E 030°57'5 9.1
2018-Jul-24 10:00N 46°27' E 030°57'5 9.1
2018-Jul-24 09:30N 46°22' E 030°57'4 8.9
2018-Jul-24 09:00N 46°18' E 030°58'5 9.4
2018-Jul-24 08:30N 46°14' E 031°01'206 8.5
2018-Jul-23 08:21N 42°55' E 029°50'  
2018-Jul-17 13:35N 39°55' E 025°57'2 6.9
2018-Jul-17 13:19N 39°54' E 025°55'199 8.3
2018-Jul-16 13:23N 36°59' E 023°54'3 8.5
2018-Jul-16 13:00N 36°56' E 023°51'4 8.7
2018-Jul-16 12:30N 36°53' E 023°48'4 8.9
2018-Jul-16 12:00N 36°50' E 023°44'4 8.9
2018-Jul-16 11:30N 36°46' E 023°41'4 8.7
2018-Jul-16 11:00N 36°43' E 023°37'4 8.6
2018-Jul-16 10:31N 36°40' E 023°34'5 8.5
2018-Jul-16 09:57N 36°36' E 023°30'  
Track history (hours):
 
Tides and Currents Weather Stations Pressure Air Temp Water Temp Dewpoint Dewpoint Depression Visibility Wind Speed Wind Dir Waves Ship Positions

Am Larafale

Last reported at 2018-Jul-24 17:00 UTC. Time now 2018-Aug-19 15:19 UTC.
Position N 46°33' E 032°16'.
Warning: this ship's position is 25 days out of date.

Length 106 m; draft 3.7 m.

Type: Cargo ship. MMSI: 248738000.

Date/timePositionNaut miles runAvg speedWind from/ knotsBaromVisibWave heightAir tempDewpointWater temp
2018-Jul-24 17:00N 46°33' E 032°16'6 8.5
2018-Jul-24 16:15N 46°32' E 032°07'2 9.4
2018-Jul-24 16:00N 46°32' E 032°04'5 9.2
2018-Jul-24 15:28N 46°34' E 031°57'25 8.8
2018-Jul-24 12:39N 46°35' E 031°21'1 8.7
2018-Jul-24 12:30N 46°35' E 031°20'4 8.6
2018-Jul-24 12:00N 46°35' E 031°13'4 8.9
2018-Jul-24 11:30N 46°35' E 031°07'4 8.6
2018-Jul-24 11:00N 46°34' E 031°01'3 6.9
2018-Jul-24 10:30N 46°31' E 030°57'5 9.1
2018-Jul-24 10:00N 46°27' E 030°57'5 9.1
2018-Jul-24 09:30N 46°22' E 030°57'4 8.9
2018-Jul-24 09:00N 46°18' E 030°58'5 9.4
2018-Jul-24 08:30N 46°14' E 031°01'206 8.5
2018-Jul-23 08:21N 42°55' E 029°50'  
2018-Jul-17 13:35N 39°55' E 025°57'2 6.9
2018-Jul-17 13:19N 39°54' E 025°55'199 8.3
2018-Jul-16 13:23N 36°59' E 023°54'3 8.5
2018-Jul-16 13:00N 36°56' E 023°51'4 8.7
2018-Jul-16 12:30N 36°53' E 023°48'4 8.9
2018-Jul-16 12:00N 36°50' E 023°44'4 8.9
2018-Jul-16 11:30N 36°46' E 023°41'4 8.7
2018-Jul-16 11:00N 36°43' E 023°37'4 8.6
2018-Jul-16 10:31N 36°40' E 023°34'5 8.5
2018-Jul-16 09:57N 36°36' E 023°30'  

Dump ship's entire track history